createdAt,value
2022-12-27T00:01:31.683Z,0.10
2022-12-27T00:03:58.608Z,0.24
2022-12-27T00:06:26.785Z,0.28
2022-12-27T00:08:54.086Z,0.17
2022-12-27T00:11:23.461Z,0.22
2022-12-27T00:13:50.337Z,0.40
2022-12-27T00:16:19.617Z,0.42
2022-12-27T00:18:47.227Z,0.57
2022-12-27T00:21:14.103Z,0.82
2022-12-27T00:23:43.560Z,0.87
2022-12-27T00:26:22.238Z,0.73
2022-12-27T00:28:49.185Z,0.75
2022-12-27T00:31:16.954Z,0.71
2022-12-27T00:33:45.507Z,0.81
2022-12-27T00:36:18.174Z,0.77
2022-12-27T00:38:44.704Z,0.60
2022-12-27T00:41:12.046Z,0.59
2022-12-27T00:43:38.520Z,0.68
2022-12-27T00:46:05.372Z,0.63
2022-12-27T00:48:31.868Z,0.54
2022-12-27T00:51:07.926Z,0.45
2022-12-27T00:53:35.494Z,0.36
2022-12-27T00:56:06.655Z,0.29
2022-12-27T00:58:35.993Z,0.38
2022-12-27T01:01:18.924Z,0.61
2022-12-27T01:03:46.284Z,0.68
2022-12-27T01:06:15.684Z,0.78
2022-12-27T01:08:43.077Z,0.88
2022-12-27T01:11:11.047Z,0.85
2022-12-27T01:13:38.764Z,0.96
2022-12-27T01:16:12.688Z,1.08
2022-12-27T01:18:39.191Z,1.01
2022-12-27T01:21:14.502Z,1.04
2022-12-27T01:23:41.894Z,0.90
2022-12-27T01:26:16.203Z,0.98
2022-12-27T01:28:43.205Z,0.95
2022-12-27T01:31:15.986Z,0.89
2022-12-27T01:33:43.057Z,0.79
2022-12-27T01:36:10.267Z,0.72
2022-12-27T01:38:36.738Z,0.70
2022-12-27T01:41:23.273Z,0.79
2022-12-27T01:43:49.872Z,0.83
2022-12-27T01:46:17.491Z,0.95
2022-12-27T01:48:44.806Z,0.97
2022-12-27T01:51:12.227Z,1.01
2022-12-27T01:53:44.281Z,1.01
2022-12-27T01:56:23.641Z,1.05
2022-12-27T01:58:59.861Z,1.11
2022-12-27T02:01:30.776Z,1.09
2022-12-27T02:04:04.222Z,0.92
2022-12-27T02:06:32.558Z,1.07
2022-12-27T02:09:16.965Z,1.10
2022-12-27T02:11:52.066Z,1.07
2022-12-27T02:14:28.053Z,1.12
2022-12-27T02:16:57.229Z,1.11
2022-12-27T02:19:54.316Z,1.08
2022-12-27T02:22:58.301Z,1.02
2022-12-27T02:25:39.705Z,0.97
2022-12-27T02:28:28.424Z,1.01
2022-12-27T02:31:04.058Z,1.02
2022-12-27T02:33:36.449Z,1.06
2022-12-27T02:36:11.710Z,1.08
2022-12-27T02:38:42.699Z,1.05
2022-12-27T02:41:30.392Z,1.02
2022-12-27T02:44:16.712Z,1.00
2022-12-27T02:47:02.535Z,0.70
2022-12-27T02:49:50.059Z,0.71
2022-12-27T02:52:45.286Z,0.81
2022-12-27T02:55:29.548Z,0.82
2022-12-27T02:58:36.037Z,0.90
2022-12-27T03:01:36.216Z,0.91
2022-12-27T03:04:20.562Z,0.92
2022-12-27T03:07:02.330Z,1.02
2022-12-27T03:10:10.398Z,0.97
2022-12-27T03:13:18.108Z,0.88
2022-12-27T03:16:14.583Z,0.76
2022-12-27T03:19:07.961Z,0.86
2022-12-27T03:22:03.619Z,0.80
2022-12-27T03:24:53.828Z,1.01
2022-12-27T03:27:33.207Z,0.89
2022-12-27T03:30:22.665Z,0.90
2022-12-27T03:33:13.702Z,0.90
2022-12-27T03:36:18.541Z,0.87
2022-12-27T03:38:54.399Z,0.83
2022-12-27T03:41:46.147Z,0.84
2022-12-27T03:44:24.846Z,0.83
2022-12-27T03:47:07.721Z,0.79
2022-12-27T03:49:41.144Z,0.61
2022-12-27T03:52:12.974Z,0.58
2022-12-27T03:54:42.660Z,0.41
2022-12-27T03:57:13.738Z,0.38
2022-12-27T03:59:40.405Z,0.27
2022-12-27T04:02:07.967Z,0.27
2022-12-27T04:04:34.911Z,0.24
2022-12-27T04:07:01.728Z,0.33
2022-12-27T04:09:46.730Z,0.26
2022-12-27T04:12:32.003Z,0.14
2022-12-27T04:15:16.705Z,0.02
2022-12-27T04:18:03.556Z,0.08
2022-12-27T04:20:48.929Z,0.04
2022-12-27T04:23:33.964Z,0.02
2022-12-27T04:26:20.071Z,-0.02
2022-12-27T04:29:04.871Z,0.10
2022-12-27T04:31:49.682Z,0.23
2022-12-27T04:34:34.331Z,0.19
2022-12-27T04:37:00.842Z,0.21
2022-12-27T04:39:27.321Z,0.10
2022-12-27T04:42:12.419Z,0.07
2022-12-27T04:44:57.677Z,-0.09
2022-12-27T04:47:42.898Z,-0.15
2022-12-27T04:50:49.844Z,-0.30
2022-12-27T04:53:37.696Z,-0.22
2022-12-27T04:56:05.577Z,-0.33
2022-12-27T04:58:32.478Z,-0.33
2022-12-27T05:01:20.054Z,-0.33
2022-12-27T05:03:49.094Z,-0.35
2022-12-27T05:06:17.301Z,-0.40
2022-12-27T05:09:02.278Z,-0.44
2022-12-27T05:11:47.141Z,-0.44
2022-12-27T05:14:15.128Z,-0.45
2022-12-27T05:16:43.711Z,-0.44
2022-12-27T05:19:12.197Z,-0.52
2022-12-27T05:22:06.010Z,-0.48
2022-12-27T05:24:52.983Z,-0.59
2022-12-27T05:27:19.697Z,-0.44
2022-12-27T05:29:46.662Z,-0.45
2022-12-27T05:32:13.942Z,-0.51
2022-12-27T05:34:41.013Z,-0.48
2022-12-27T05:37:07.977Z,-0.68
2022-12-27T05:39:34.486Z,-0.51
2022-12-27T05:42:00.996Z,-0.68
2022-12-27T05:44:27.457Z,-0.54
2022-12-27T05:46:54.817Z,-0.58
2022-12-27T05:49:21.557Z,-0.56
2022-12-27T05:51:48.716Z,-0.64
2022-12-27T05:54:15.363Z,-0.61
2022-12-27T05:56:41.818Z,-0.55
2022-12-27T05:59:08.351Z,-0.70
2022-12-27T06:01:35.012Z,-0.62
2022-12-27T06:04:01.632Z,-0.50
2022-12-27T06:06:28.925Z,-0.46
2022-12-27T06:08:55.459Z,-0.60
2022-12-27T06:11:21.948Z,-0.68
2022-12-27T06:13:51.111Z,-0.90
2022-12-27T06:16:18.267Z,-0.96
2022-12-27T06:18:44.758Z,-0.92
2022-12-27T06:21:17.797Z,-0.78
2022-12-27T06:23:45.503Z,-1.00
2022-12-27T06:26:15.113Z,-1.04
2022-12-27T06:28:41.678Z,-1.13
2022-12-27T06:31:09.848Z,-1.04
2022-12-27T06:33:36.473Z,-0.98
2022-12-27T06:36:11.269Z,-0.91
2022-12-27T06:38:38.120Z,-0.82
2022-12-27T06:41:07.838Z,-0.70
2022-12-27T06:43:34.733Z,-0.64
2022-12-27T06:46:04.832Z,-0.79
2022-12-27T06:48:31.732Z,-0.62
2022-12-27T06:50:58.265Z,-0.80
2022-12-27T06:53:25.033Z,-0.66
2022-12-27T06:55:51.513Z,-0.81
2022-12-27T06:58:17.960Z,-0.67
2022-12-27T07:00:44.496Z,-0.61
2022-12-27T07:03:11.014Z,-0.64
2022-12-27T07:05:37.943Z,-0.70
2022-12-27T07:08:04.507Z,-0.79
2022-12-27T07:10:31.368Z,-0.67
2022-12-27T07:12:57.984Z,-0.65
2022-12-27T07:15:24.900Z,-0.51
2022-12-27T07:17:51.407Z,-0.30
2022-12-27T07:20:17.937Z,-0.12
2022-12-27T07:22:44.497Z,0.01
2022-12-27T07:25:10.961Z,0.08
2022-12-27T07:27:37.585Z,0.09
2022-12-27T07:30:06.268Z,0.10
2022-12-27T07:32:32.720Z,0.38
2022-12-27T07:34:59.260Z,0.58
2022-12-27T07:37:25.771Z,0.64
2022-12-27T07:39:52.240Z,0.73
2022-12-27T07:42:18.697Z,0.60
2022-12-27T07:44:45.563Z,0.55
2022-12-27T07:47:12.056Z,0.78
2022-12-27T07:49:38.501Z,0.51
2022-12-27T07:52:05.041Z,0.47
2022-12-27T07:54:31.577Z,0.76
2022-12-27T07:56:58.026Z,1.05
2022-12-27T07:59:24.479Z,1.08
2022-12-27T08:02:06.397Z,1.13
2022-12-27T08:04:35.812Z,1.29
2022-12-27T08:07:07.859Z,1.29
2022-12-27T08:09:37.925Z,1.52
2022-12-27T08:12:04.947Z,1.51
2022-12-27T08:14:31.436Z,1.41
2022-12-27T08:17:02.916Z,1.58
2022-12-27T08:19:29.500Z,1.73
2022-12-27T08:21:55.925Z,1.68
2022-12-27T08:24:22.595Z,1.61
2022-12-27T08:26:49.113Z,1.79
2022-12-27T08:29:15.614Z,2.04
2022-12-27T08:31:42.076Z,1.84
2022-12-27T08:34:08.539Z,1.94
2022-12-27T08:39:21.451Z,1.86
2022-12-27T08:41:47.986Z,2.01
2022-12-27T08:44:14.439Z,1.99
2022-12-27T08:46:41.073Z,2.27
2022-12-27T08:49:07.584Z,2.16
2022-12-27T08:51:40.640Z,2.27
2022-12-27T08:54:07.546Z,2.43
2022-12-27T08:56:34.052Z,2.37
2022-12-27T08:59:00.592Z,2.45
2022-12-27T09:01:27.392Z,2.48
2022-12-27T09:03:53.956Z,2.47
2022-12-27T09:06:22.545Z,2.45
2022-12-27T09:08:50.490Z,2.47
2022-12-27T09:11:22.318Z,2.71
2022-12-27T09:13:49.205Z,2.63
2022-12-27T09:16:19.138Z,2.78
2022-12-27T09:18:49.173Z,2.68
2022-12-27T09:21:18.167Z,2.71
2022-12-27T09:23:45.481Z,2.79
2022-12-27T09:26:20.618Z,2.81
2022-12-27T09:28:48.357Z,3.09
2022-12-27T09:31:15.654Z,3.00
2022-12-27T09:33:42.526Z,3.07
2022-12-27T09:36:12.034Z,3.09
2022-12-27T09:38:38.704Z,2.99
2022-12-27T09:41:19.950Z,2.95
2022-12-27T09:44:12.926Z,2.95
2022-12-27T09:46:43.891Z,3.00
2022-12-27T09:49:19.764Z,2.96
2022-12-27T09:51:51.015Z,3.01
2022-12-27T09:54:33.062Z,2.98
2022-12-27T09:57:19.317Z,2.98
2022-12-27T09:59:49.426Z,2.88
2022-12-27T10:02:24.614Z,3.05
2022-12-27T10:05:19.123Z,3.05
2022-12-27T10:08:01.886Z,3.04
2022-12-27T10:10:41.529Z,3.14
2022-12-27T10:13:54.319Z,3.24
2022-12-27T10:16:46.499Z,3.35
2022-12-27T10:19:50.160Z,3.43
2022-12-27T10:22:41.382Z,3.64
2022-12-27T10:25:18.566Z,3.64
2022-12-27T10:27:47.088Z,3.60
2022-12-27T10:30:19.896Z,3.62
2022-12-27T10:32:47.734Z,3.63
2022-12-27T10:35:20.422Z,3.66
2022-12-27T10:37:48.391Z,3.54
2022-12-27T10:40:32.497Z,3.78
2022-12-27T10:43:18.419Z,3.72
2022-12-27T10:45:45.107Z,3.63
2022-12-27T10:48:41.517Z,3.71
2022-12-27T10:51:16.073Z,3.74
2022-12-27T10:53:45.218Z,3.63
2022-12-27T10:56:20.797Z,3.70
2022-12-27T10:58:56.461Z,3.85
2022-12-27T11:01:30.321Z,3.82
2022-12-27T11:04:30.388Z,3.86
2022-12-27T11:07:00.172Z,4.04
2022-12-27T11:09:36.942Z,4.13
2022-12-27T11:12:24.165Z,4.23
2022-12-27T11:15:02.567Z,4.12
2022-12-27T11:17:42.589Z,4.32
2022-12-27T11:20:23.550Z,4.33
2022-12-27T11:22:58.248Z,4.44
2022-12-27T11:25:29.145Z,4.74
2022-12-27T11:28:01.053Z,4.81
2022-12-27T11:30:41.630Z,4.85
2022-12-27T11:33:35.992Z,4.90
2022-12-27T11:36:03.439Z,4.64
2022-12-27T11:38:32.061Z,4.56
2022-12-27T11:41:20.855Z,4.54
2022-12-27T11:43:57.960Z,4.38
2022-12-27T11:46:30.453Z,4.28
2022-12-27T11:48:59.008Z,4.30
2022-12-27T11:51:40.802Z,4.37
2022-12-27T11:54:13.179Z,4.24
2022-12-27T11:56:55.532Z,4.05
2022-12-27T11:59:40.790Z,4.08
2022-12-27T12:02:25.871Z,4.08
2022-12-27T12:05:04.419Z,3.90
2022-12-27T12:07:46.804Z,3.81
2022-12-27T12:10:21.347Z,3.63
2022-12-27T12:13:10.149Z,3.67
2022-12-27T12:16:15.626Z,3.63
2022-12-27T12:19:06.754Z,3.62
2022-12-27T12:22:20.399Z,3.54
2022-12-27T12:25:11.635Z,3.61
2022-12-27T12:27:47.144Z,3.72
2022-12-27T12:30:18.435Z,3.67
2022-12-27T12:33:05.375Z,3.60
2022-12-27T12:35:34.747Z,3.62
2022-12-27T12:38:21.313Z,3.58
2022-12-27T12:41:02.787Z,3.65
2022-12-27T12:43:40.523Z,3.64
2022-12-27T12:46:32.155Z,3.76
2022-12-27T12:49:29.200Z,3.75
2022-12-27T12:52:45.893Z,3.77
2022-12-27T12:55:25.460Z,4.03
2022-12-27T12:58:29.084Z,4.06
2022-12-27T13:01:14.593Z,3.89
2022-12-27T13:04:01.662Z,4.07
2022-12-27T13:06:41.273Z,4.11
2022-12-27T13:09:27.990Z,4.15
2022-12-27T13:12:13.171Z,4.19
2022-12-27T13:14:51.876Z,4.39
2022-12-27T13:17:21.408Z,4.41
2022-12-27T13:20:03.766Z,4.45
2022-12-27T13:22:55.288Z,4.49
2022-12-27T13:25:34.647Z,4.40
2022-12-27T13:28:25.305Z,4.38
2022-12-27T13:31:07.973Z,4.38
2022-12-27T13:33:56.254Z,4.37
2022-12-27T13:36:42.625Z,4.38
2022-12-27T13:39:35.775Z,4.24
2022-12-27T13:42:14.493Z,4.25
2022-12-27T13:45:19.818Z,4.27
2022-12-27T13:47:49.190Z,4.29
2022-12-27T13:50:36.275Z,4.43
2022-12-27T13:53:34.703Z,4.62
2022-12-27T13:56:52.903Z,5.06
2022-12-27T13:59:37.736Z,4.98
2022-12-27T14:02:22.738Z,4.82
2022-12-27T14:05:08.905Z,4.97
2022-12-27T14:07:46.633Z,5.17
2022-12-27T14:10:21.729Z,5.44
2022-12-27T14:13:02.742Z,5.48
2022-12-27T14:15:54.205Z,4.99
2022-12-27T14:18:45.444Z,4.94
2022-12-27T14:21:40.306Z,4.79
2022-12-27T14:24:40.260Z,4.66
2022-12-27T14:27:22.083Z,4.45
2022-12-27T14:30:11.739Z,4.30
2022-12-27T14:32:41.414Z,4.20
2022-12-27T14:35:24.779Z,4.14
2022-12-27T14:38:19.358Z,4.04
2022-12-27T14:41:23.511Z,4.06
2022-12-27T14:44:15.485Z,4.15
2022-12-27T14:46:57.086Z,4.21
2022-12-27T14:49:49.294Z,4.31
2022-12-27T14:52:53.241Z,4.38
2022-12-27T14:55:49.828Z,4.33
2022-12-27T14:58:31.297Z,4.15
2022-12-27T15:01:33.106Z,4.07
2022-12-27T15:04:17.972Z,3.93
2022-12-27T15:06:47.447Z,3.82
2022-12-27T15:09:25.028Z,3.78
2022-12-27T15:12:13.502Z,3.82
2022-12-27T15:15:17.829Z,3.67
2022-12-27T15:18:10.049Z,3.46
2022-12-27T15:20:55.310Z,3.17
2022-12-27T15:23:32.344Z,3.23
2022-12-27T15:26:30.317Z,3.16
2022-12-27T15:29:09.311Z,3.03
2022-12-27T15:31:55.911Z,2.87
2022-12-27T15:34:38.235Z,2.66
2022-12-27T15:37:05.324Z,2.92
2022-12-27T15:39:34.720Z,2.77
2022-12-27T15:42:46.494Z,2.66
2022-12-27T15:45:37.071Z,2.45
2022-12-27T15:48:33.199Z,2.36
2022-12-27T15:51:33.397Z,2.27
2022-12-27T15:54:22.217Z,2.03
2022-12-27T15:57:15.994Z,1.91
2022-12-27T16:00:33.821Z,1.74
2022-12-27T16:03:03.484Z,1.71
2022-12-27T16:05:44.962Z,1.53
2022-12-27T16:08:35.052Z,1.38
2022-12-27T16:11:08.321Z,1.45
2022-12-27T16:13:49.236Z,1.34
2022-12-27T16:16:28.385Z,1.27
2022-12-27T16:19:18.062Z,1.18
2022-12-27T16:21:46.382Z,1.24
2022-12-27T16:24:19.744Z,1.30
2022-12-27T16:27:27.205Z,1.37
2022-12-27T16:29:55.587Z,1.24
2022-12-27T16:32:25.281Z,1.43
2022-12-27T16:34:55.454Z,1.44
2022-12-27T16:37:27.877Z,1.43
2022-12-27T16:40:25.676Z,1.24
2022-12-27T16:42:58.153Z,1.35
2022-12-27T16:45:39.907Z,1.17
2022-12-27T16:48:17.952Z,1.14
2022-12-27T16:50:56.289Z,1.01
2022-12-27T16:54:25.262Z,1.05
2022-12-27T16:57:23.804Z,0.93
2022-12-27T17:00:21.835Z,1.10
2022-12-27T17:02:48.969Z,1.24
2022-12-27T17:05:15.466Z,1.06
2022-12-27T17:07:51.047Z,1.05
2022-12-27T17:10:44.573Z,0.92
2022-12-27T17:13:33.013Z,0.81
2022-12-27T17:16:07.396Z,0.89
2022-12-27T17:18:35.952Z,0.82
2022-12-27T17:21:29.826Z,0.80
2022-12-27T17:24:00.971Z,0.85
2022-12-27T17:27:05.177Z,0.90
2022-12-27T17:29:50.292Z,0.74
2022-12-27T17:32:23.772Z,0.66
2022-12-27T17:35:05.122Z,0.56
2022-12-27T17:38:13.574Z,0.83
2022-12-27T17:40:51.814Z,0.85
2022-12-27T17:44:08.100Z,0.68
2022-12-27T17:46:49.527Z,0.66
2022-12-27T17:49:16.780Z,0.72
2022-12-27T17:52:05.663Z,0.54
2022-12-27T17:54:51.201Z,0.44
2022-12-27T17:57:38.672Z,0.21
2022-12-27T18:00:06.822Z,0.20
2022-12-27T18:02:40.121Z,0.20
2022-12-27T18:05:12.860Z,-0.04
2022-12-27T18:07:39.605Z,-0.28
2022-12-27T18:10:24.921Z,-0.22
2022-12-27T18:12:56.603Z,-0.20
2022-12-27T18:15:29.171Z,-0.28
2022-12-27T18:17:59.622Z,-0.18
2022-12-27T18:20:26.051Z,-0.15
2022-12-27T18:23:13.288Z,-0.27
2022-12-27T18:25:48.844Z,-0.37
2022-12-27T18:28:16.745Z,-0.30
2022-12-27T18:30:51.039Z,-0.39
2022-12-27T18:33:18.005Z,-0.24
2022-12-27T18:35:49.237Z,-0.31
2022-12-27T18:38:33.252Z,-0.43
2022-12-27T18:41:06.806Z,-0.56
2022-12-27T18:43:35.170Z,-0.67
2022-12-27T18:46:04.112Z,-0.55
2022-12-27T18:48:35.034Z,-0.41
2022-12-27T18:51:02.912Z,-0.39
2022-12-27T18:53:35.458Z,-0.49
2022-12-27T18:56:06.191Z,-0.46
2022-12-27T18:58:34.083Z,-0.71
2022-12-27T19:01:04.456Z,-0.95
2022-12-27T19:03:36.574Z,-1.01
2022-12-27T19:06:10.873Z,-0.95
2022-12-27T19:08:49.891Z,-1.05
2022-12-27T19:11:36.606Z,-0.95
2022-12-27T19:14:04.902Z,-0.86
2022-12-27T19:16:34.716Z,-0.80
2022-12-27T19:19:14.384Z,-0.97
2022-12-27T19:21:40.832Z,-0.85
2022-12-27T19:24:28.785Z,-0.85
2022-12-27T19:26:57.931Z,-0.89
2022-12-27T19:29:28.052Z,-0.94
2022-12-27T19:32:03.056Z,-1.01
2022-12-27T19:34:32.514Z,-0.95
2022-12-27T19:36:59.390Z,-1.05
2022-12-27T19:39:33.273Z,-1.20
2022-12-27T19:42:03.520Z,-1.39
2022-12-27T19:44:31.548Z,-1.26
2022-12-27T19:46:58.434Z,-1.43
2022-12-27T19:49:42.538Z,-1.28
2022-12-27T19:52:21.880Z,-1.27
2022-12-27T19:54:50.755Z,-1.23
2022-12-27T19:57:17.287Z,-1.22
2022-12-27T19:59:43.847Z,-1.16
2022-12-27T20:02:10.838Z,-1.11
2022-12-27T20:04:37.744Z,-1.05
2022-12-27T20:07:04.421Z,-1.06
2022-12-27T20:09:30.917Z,-1.09
2022-12-27T20:11:59.789Z,-1.20
2022-12-27T20:14:26.328Z,-1.20
2022-12-27T20:16:52.921Z,-1.07
2022-12-27T20:19:20.206Z,-1.01
2022-12-27T20:21:47.021Z,-1.17
2022-12-27T20:24:13.938Z,-1.20
2022-12-27T20:26:41.285Z,-1.21
2022-12-27T20:29:07.796Z,-1.24
2022-12-27T20:31:39.033Z,-1.26
2022-12-27T20:34:10.944Z,-1.31
2022-12-27T20:36:37.463Z,-1.24
2022-12-27T20:39:04.073Z,-1.31
2022-12-27T20:41:30.545Z,-1.32
2022-12-27T20:44:02.164Z,-1.31
2022-12-27T20:46:31.387Z,-1.28
2022-12-27T20:49:16.181Z,-1.32
2022-12-27T20:54:44.540Z,-1.35
2022-12-27T20:57:21.839Z,-1.29
2022-12-27T21:08:07.997Z,-1.43
2022-12-27T21:38:25.467Z,-0.82
2022-12-27T21:41:55.274Z,-0.81
2022-12-27T21:49:00.366Z,-0.91
2022-12-27T22:05:29.749Z,-0.98
2022-12-27T22:13:54.376Z,-0.81
2022-12-27T22:16:32.513Z,-0.75
2022-12-27T22:18:59.877Z,-0.81
2022-12-27T22:21:31.816Z,-0.88
2022-12-27T22:24:00.558Z,-0.83
2022-12-27T22:26:37.145Z,-1.04
2022-12-27T22:29:06.873Z,-1.04
2022-12-27T22:31:36.551Z,-0.79
2022-12-27T22:34:04.945Z,-0.83
2022-12-27T22:36:31.520Z,-0.53
2022-12-27T22:38:59.612Z,-0.73
2022-12-27T22:41:28.790Z,-0.62
2022-12-27T22:44:01.889Z,-0.83
2022-12-27T22:46:51.173Z,-0.78
2022-12-27T22:49:17.028Z,-0.72
2022-12-27T22:51:43.560Z,-0.57
2022-12-27T22:54:10.016Z,-0.34
2022-12-27T22:56:39.784Z,-0.32
2022-12-27T22:59:11.481Z,-0.24
2022-12-27T23:01:38.526Z,0.06
2022-12-27T23:04:06.339Z,0.42
2022-12-27T23:06:34.734Z,0.37
2022-12-27T23:09:01.328Z,0.49
2022-12-27T23:11:33.768Z,0.62
2022-12-27T23:14:02.803Z,0.64
2022-12-27T23:16:38.941Z,0.57
2022-12-27T23:19:07.079Z,0.59
2022-12-27T23:21:33.732Z,0.85
2022-12-27T23:24:00.309Z,0.69
2022-12-27T23:26:27.713Z,0.78
2022-12-27T23:28:54.264Z,1.02
2022-12-27T23:31:22.847Z,1.12
2022-12-27T23:33:49.507Z,1.20
2022-12-27T23:36:16.395Z,1.54
2022-12-27T23:38:44.239Z,1.66
2022-12-27T23:41:15.728Z,1.98
2022-12-27T23:43:52.328Z,1.96
2022-12-27T23:46:27.171Z,2.10
2022-12-27T23:48:54.903Z,2.16
2022-12-27T23:51:22.287Z,2.17
2022-12-27T23:53:49.406Z,2.05
2022-12-27T23:56:27.815Z,2.06
2022-12-27T23:58:56.331Z,2.30
